sensor_id;sensor_type;location;lat;lon;timestamp;pressure;altitude;pressure_sealevel;temperature;humidity
77351;BME280;66420;50.246;14.320;2023-11-22T00:01:40;100014.69;;;1.81;88.07
77351;BME280;66420;50.246;14.320;2023-11-22T00:04:24;100019.69;;;1.89;87.39
77351;BME280;66420;50.246;14.320;2023-11-22T00:07:09;100024.03;;;1.90;87.29
77351;BME280;66420;50.246;14.320;2023-11-22T00:09:55;100036.31;;;1.97;87.41
77351;BME280;66420;50.246;14.320;2023-11-22T00:12:40;100033.88;;;1.96;87.73
77351;BME280;66420;50.246;14.320;2023-11-22T00:15:24;100031.94;;;1.79;87.72
77351;BME280;66420;50.246;14.320;2023-11-22T00:18:10;100026.91;;;1.71;87.15
77351;BME280;66420;50.246;14.320;2023-11-22T00:20:54;100037.03;;;1.64;88.42
77351;BME280;66420;50.246;14.320;2023-11-22T00:23:40;100045.03;;;1.59;88.77
77351;BME280;66420;50.246;14.320;2023-11-22T00:26:25;100048.31;;;1.38;88.64
77351;BME280;66420;50.246;14.320;2023-11-22T00:29:10;100043.63;;;1.45;90.92
77351;BME280;66420;50.246;14.320;2023-11-22T00:31:55;100046.91;;;1.47;89.15
77351;BME280;66420;50.246;14.320;2023-11-22T00:34:40;100047.63;;;1.54;89.62
77351;BME280;66420;50.246;14.320;2023-11-22T00:37:25;100042.94;;;1.15;87.77
77351;BME280;66420;50.246;14.320;2023-11-22T00:40:10;100048.13;;;1.05;89.38
77351;BME280;66420;50.246;14.320;2023-11-22T00:42:55;100052.91;;;1.38;89.57
77351;BME280;66420;50.246;14.320;2023-11-22T00:45:40;100056.88;;;1.47;88.23
77351;BME280;66420;50.246;14.320;2023-11-22T00:48:24;100056.09;;;1.23;87.92
77351;BME280;66420;50.246;14.320;2023-11-22T00:51:09;100059.47;;;1.30;88.91
77351;BME280;66420;50.246;14.320;2023-11-22T00:53:55;100064.06;;;1.41;89.24
77351;BME280;66420;50.246;14.320;2023-11-22T00:56:40;100074.25;;;1.27;88.47
77351;BME280;66420;50.246;14.320;2023-11-22T00:59:25;100066.38;;;1.49;88.43
77351;BME280;66420;50.246;14.320;2023-11-22T01:02:11;100065.22;;;1.33;87.68
77351;BME280;66420;50.246;14.320;2023-11-22T01:04:56;100057.13;;;1.45;87.81
77351;BME280;66420;50.246;14.320;2023-11-22T01:07:41;100060.28;;;1.42;87.75
77351;BME280;66420;50.246;14.320;2023-11-22T01:10:26;100052.47;;;1.17;87.61
77351;BME280;66420;50.246;14.320;2023-11-22T01:13:10;100060.53;;;1.29;88.57
77351;BME280;66420;50.246;14.320;2023-11-22T01:15:55;100068.63;;;1.06;88.85
77351;BME280;66420;50.246;14.320;2023-11-22T01:18:40;100071.31;;;1.29;89.55
77351;BME280;66420;50.246;14.320;2023-11-22T01:21:25;100068.06;;;1.27;88.29
77351;BME280;66420;50.246;14.320;2023-11-22T01:24:10;100074.47;;;1.38;88.16
77351;BME280;66420;50.246;14.320;2023-11-22T01:26:55;100087.72;;;1.16;88.11
77351;BME280;66420;50.246;14.320;2023-11-22T01:29:40;100086.81;;;1.22;88.66
77351;BME280;66420;50.246;14.320;2023-11-22T01:32:25;100081.78;;;1.14;87.26
77351;BME280;66420;50.246;14.320;2023-11-22T01:35:10;100088.66;;;1.33;88.50
77351;BME280;66420;50.246;14.320;2023-11-22T01:37:55;100092.19;;;1.22;88.29
77351;BME280;66420;50.246;14.320;2023-11-22T01:40:46;100095.72;;;1.22;87.57
77351;BME280;66420;50.246;14.320;2023-11-22T01:43:31;100097.94;;;1.25;87.99
77351;BME280;66420;50.246;14.320;2023-11-22T01:46:23;100092.88;;;1.29;87.97
77351;BME280;66420;50.246;14.320;2023-11-22T01:49:10;100092.19;;;1.22;86.53
77351;BME280;66420;50.246;14.320;2023-11-22T01:51:55;100094.31;;;1.31;87.01
77351;BME280;66420;50.246;14.320;2023-11-22T01:54:41;100099.00;;;1.36;86.60
77351;BME280;66420;50.246;14.320;2023-11-22T01:57:27;100102.75;;;1.35;85.40
77351;BME280;66420;50.246;14.320;2023-11-22T02:00:12;100105.22;;;1.37;85.19
77351;BME280;66420;50.246;14.320;2023-11-22T02:02:59;100111.50;;;1.42;85.60
77351;BME280;66420;50.246;14.320;2023-11-22T02:05:45;100114.34;;;1.47;83.92
77351;BME280;66420;50.246;14.320;2023-11-22T02:08:29;100116.09;;;1.30;85.25
77351;BME280;66420;50.246;14.320;2023-11-22T02:11:17;100121.84;;;1.33;84.60
77351;BME280;66420;50.246;14.320;2023-11-22T02:14:06;100135.56;;;1.32;84.00
77351;BME280;66420;50.246;14.320;2023-11-22T02:16:51;100142.59;;;1.33;83.27
77351;BME280;66420;50.246;14.320;2023-11-22T02:19:36;100132.53;;;1.40;83.82
77351;BME280;66420;50.246;14.320;2023-11-22T02:22:21;100134.41;;;1.28;82.96
77351;BME280;66420;50.246;14.320;2023-11-22T02:25:06;100147.41;;;1.31;81.76
77351;BME280;66420;50.246;14.320;2023-11-22T02:27:51;100137.56;;;1.25;83.36
77351;BME280;66420;50.246;14.320;2023-11-22T02:30:36;100152.91;;;1.13;82.10
77351;BME280;66420;50.246;14.320;2023-11-22T02:33:21;100146.59;;;1.19;81.81
77351;BME280;66420;50.246;14.320;2023-11-22T02:36:06;100155.94;;;1.16;82.23
77351;BME280;66420;50.246;14.320;2023-11-22T02:38:52;100170.13;;;1.12;83.17
77351;BME280;66420;50.246;14.320;2023-11-22T02:41:37;100165.94;;;1.27;83.15
77351;BME280;66420;50.246;14.320;2023-11-22T02:44:22;100160.16;;;1.24;83.16
77351;BME280;66420;50.246;14.320;2023-11-22T02:47:07;100159.13;;;1.13;83.19
77351;BME280;66420;50.246;14.320;2023-11-22T02:49:52;100169.78;;;1.20;83.66
77351;BME280;66420;50.246;14.320;2023-11-22T02:52:37;100172.72;;;1.18;84.20
77351;BME280;66420;50.246;14.320;2023-11-22T02:55:21;100175.66;;;1.17;84.05
77351;BME280;66420;50.246;14.320;2023-11-22T02:58:06;100186.78;;;1.09;84.30
77351;BME280;66420;50.246;14.320;2023-11-22T03:00:50;100189.25;;;1.22;84.44
77351;BME280;66420;50.246;14.320;2023-11-22T03:03:39;100191.22;;;1.15;84.95
77351;BME280;66420;50.246;14.320;2023-11-22T03:06:24;100186.91;;;1.14;84.39
77351;BME280;66420;50.246;14.320;2023-11-22T03:09:09;100190.13;;;0.93;83.73
77351;BME280;66420;50.246;14.320;2023-11-22T03:11:54;100202.81;;;1.04;84.39
77351;BME280;66420;50.246;14.320;2023-11-22T03:14:39;100206.84;;;0.83;83.47
77351;BME280;66420;50.246;14.320;2023-11-22T03:17:24;100211.53;;;0.87;83.29
77351;BME280;66420;50.246;14.320;2023-11-22T03:20:10;100211.97;;;0.73;82.27
77351;BME280;66420;50.246;14.320;2023-11-22T03:22:56;100214.50;;;0.98;82.63
77351;BME280;66420;50.246;14.320;2023-11-22T03:25:40;100214.06;;;0.71;82.17
77351;BME280;66420;50.246;14.320;2023-11-22T03:28:25;100217.25;;;0.79;82.41
77351;BME280;66420;50.246;14.320;2023-11-22T03:31:10;100219.19;;;1.02;82.76
77351;BME280;66420;50.246;14.320;2023-11-22T03:33:56;100221.47;;;0.75;82.55
77351;BME280;66420;50.246;14.320;2023-11-22T03:36:41;100233.50;;;1.03;83.10
77351;BME280;66420;50.246;14.320;2023-11-22T03:39:25;100235.34;;;0.91;83.55
77351;BME280;66420;50.246;14.320;2023-11-22T03:42:11;100233.69;;;0.89;82.97
77351;BME280;66420;50.246;14.320;2023-11-22T03:44:56;100241.91;;;0.65;83.19
77351;BME280;66420;50.246;14.320;2023-11-22T03:47:43;100244.56;;;0.83;84.33
77351;BME280;66420;50.246;14.320;2023-11-22T03:50:27;100242.28;;;0.68;83.27
77351;BME280;66420;50.246;14.320;2023-11-22T03:53:12;100252.41;;;0.55;84.55
77351;BME280;66420;50.246;14.320;2023-11-22T03:55:56;100254.69;;;0.69;83.44
77351;BME280;66420;50.246;14.320;2023-11-22T03:58:41;100265.03;;;0.72;84.61
77351;BME280;66420;50.246;14.320;2023-11-22T04:01:26;100263.09;;;0.61;82.67
77351;BME280;66420;50.246;14.320;2023-11-22T04:04:12;100274.50;;;0.45;82.98
77351;BME280;66420;50.246;14.320;2023-11-22T04:06:57;100267.91;;;0.59;83.34
77351;BME280;66420;50.246;14.320;2023-11-22T04:09:42;100274.16;;;0.71;83.61
77351;BME280;66420;50.246;14.320;2023-11-22T04:12:27;100268.41;;;0.68;83.44
77351;BME280;66420;50.246;14.320;2023-11-22T04:15:11;100267.28;;;0.57;82.68
77351;BME280;66420;50.246;14.320;2023-11-22T04:17:56;100274.84;;;0.67;82.00
77351;BME280;66420;50.246;14.320;2023-11-22T04:20:40;100273.13;;;0.54;82.70
77351;BME280;66420;50.246;14.320;2023-11-22T04:23:25;100272.47;;;0.40;84.39
77351;BME280;66420;50.246;14.320;2023-11-22T04:26:11;100266.41;;;0.45;85.08
77351;BME280;66420;50.246;14.320;2023-11-22T04:28:55;100265.47;;;0.69;85.03
77351;BME280;66420;50.246;14.320;2023-11-22T04:31:40;100288.81;;;0.75;85.02
77351;BME280;66420;50.246;14.320;2023-11-22T04:34:25;100301.91;;;0.72;84.39
77351;BME280;66420;50.246;14.320;2023-11-22T04:37:09;100308.56;;;0.69;84.68
77351;BME280;66420;50.246;14.320;2023-11-22T04:39:55;100308.66;;;0.63;84.62
77351;BME280;66420;50.246;14.320;2023-11-22T04:42:40;100316.28;;;0.66;85.15
77351;BME280;66420;50.246;14.320;2023-11-22T04:45:25;100318.47;;;0.57;85.97
77351;BME280;66420;50.246;14.320;2023-11-22T04:48:10;100324.28;;;0.72;87.00
77351;BME280;66420;50.246;14.320;2023-11-22T04:50:55;100323.44;;;0.90;86.28
77351;BME280;66420;50.246;14.320;2023-11-22T04:53:40;100325.50;;;0.76;86.71
77351;BME280;66420;50.246;14.320;2023-11-22T04:56:28;100331.09;;;0.57;86.68
77351;BME280;66420;50.246;14.320;2023-11-22T04:59:13;100341.28;;;0.73;86.51
77351;BME280;66420;50.246;14.320;2023-11-22T05:01:58;100337.78;;;0.54;86.21
77351;BME280;66420;50.246;14.320;2023-11-22T05:04:43;100344.66;;;0.50;86.27
77351;BME280;66420;50.246;14.320;2023-11-22T05:07:32;100346.25;;;0.33;85.50
77351;BME280;66420;50.246;14.320;2023-11-22T05:10:17;100354.81;;;0.48;85.84
77351;BME280;66420;50.246;14.320;2023-11-22T05:13:02;100347.34;;;0.68;86.13
77351;BME280;66420;50.246;14.320;2023-11-22T05:15:49;100368.75;;;0.63;86.66
77351;BME280;66420;50.246;14.320;2023-11-22T05:18:35;100363.50;;;0.50;87.02
77351;BME280;66420;50.246;14.320;2023-11-22T05:21:20;100373.22;;;0.51;87.93
77351;BME280;66420;50.246;14.320;2023-11-22T05:24:06;100375.34;;;0.67;87.79
77351;BME280;66420;50.246;14.320;2023-11-22T05:26:52;100386.25;;;0.54;86.89
77351;BME280;66420;50.246;14.320;2023-11-22T05:29:37;100393.41;;;0.42;87.00
77351;BME280;66420;50.246;14.320;2023-11-22T05:32:22;100405.91;;;0.36;86.20
77351;BME280;66420;50.246;14.320;2023-11-22T05:35:08;100402.34;;;0.18;85.38
77351;BME280;66420;50.246;14.320;2023-11-22T05:37:54;100409.03;;;0.52;85.14
77351;BME280;66420;50.246;14.320;2023-11-22T05:40:39;100414.06;;;0.48;85.60
77351;BME280;66420;50.246;14.320;2023-11-22T05:43:26;100419.91;;;0.45;85.26
77351;BME280;66420;50.246;14.320;2023-11-22T05:46:11;100412.56;;;0.52;85.50
77351;BME280;66420;50.246;14.320;2023-11-22T05:48:57;100421.84;;;0.56;85.82
77351;BME280;66420;50.246;14.320;2023-11-22T05:51:41;100425.28;;;0.45;84.52
77351;BME280;66420;50.246;14.320;2023-11-22T05:54:26;100433.91;;;0.54;85.97
77351;BME280;66420;50.246;14.320;2023-11-22T05:57:11;100428.34;;;0.24;86.62
77351;BME280;66420;50.246;14.320;2023-11-22T05:59:56;100427.38;;;0.43;86.64
77351;BME280;66420;50.246;14.320;2023-11-22T06:02:41;100426.63;;;0.36;87.39
77351;BME280;66420;50.246;14.320;2023-11-22T06:05:27;100437.06;;;0.26;86.82
77351;BME280;66420;50.246;14.320;2023-11-22T06:08:11;100431.03;;;0.24;85.67
77351;BME280;66420;50.246;14.320;2023-11-22T06:10:56;100451.88;;;0.35;86.06
77351;BME280;66420;50.246;14.320;2023-11-22T06:13:42;100455.03;;;0.32;85.56
77351;BME280;66420;50.246;14.320;2023-11-22T06:16:28;100439.53;;;0.27;85.47
77351;BME280;66420;50.246;14.320;2023-11-22T06:19:12;100439.53;;;0.27;85.78
77351;BME280;66420;50.246;14.320;2023-11-22T06:21:57;100440.13;;;0.29;84.43
77351;BME280;66420;50.246;14.320;2023-11-22T06:24:42;100449.97;;;0.17;85.71
77351;BME280;66420;50.246;14.320;2023-11-22T06:27:27;100442.81;;;0.29;85.50
77351;BME280;66420;50.246;14.320;2023-11-22T06:30:12;100450.59;;;0.37;86.16
77351;BME280;66420;50.246;14.320;2023-11-22T06:32:59;100447.91;;;0.37;85.45
77351;BME280;66420;50.246;14.320;2023-11-22T06:35:44;100445.66;;;0.10;86.35
77351;BME280;66420;50.246;14.320;2023-11-22T06:38:29;100441.78;;;0.30;86.00
77351;BME280;66420;50.246;14.320;2023-11-22T06:41:14;100440.38;;;0.46;86.21
77351;BME280;66420;50.246;14.320;2023-11-22T06:43:59;100437.63;;;0.28;85.83
77351;BME280;66420;50.246;14.320;2023-11-22T06:46:44;100442.31;;;0.39;86.37
77351;BME280;66420;50.246;14.320;2023-11-22T06:49:29;100435.31;;;0.56;85.96
77351;BME280;66420;50.246;14.320;2023-11-22T06:52:13;100439.34;;;0.47;85.63
77351;BME280;66420;50.246;14.320;2023-11-22T06:54:58;100456.81;;;0.38;87.36
77351;BME280;66420;50.246;14.320;2023-11-22T06:57:43;100464.59;;;0.46;86.43
77351;BME280;66420;50.246;14.320;2023-11-22T07:00:27;100472.66;;;0.53;87.53
77351;BME280;66420;50.246;14.320;2023-11-22T07:03:13;100463.69;;;0.59;86.69
77351;BME280;66420;50.246;14.320;2023-11-22T07:05:59;100478.47;;;0.25;87.04
77351;BME280;66420;50.246;14.320;2023-11-22T07:08:44;100487.34;;;0.32;87.29
77351;BME280;66420;50.246;14.320;2023-11-22T07:11:30;100492.53;;;0.27;87.46
77351;BME280;66420;50.246;14.320;2023-11-22T07:14:15;100506.34;;;0.06;88.44
77351;BME280;66420;50.246;14.320;2023-11-22T07:17:01;100522.56;;;0.24;90.04
77351;BME280;66420;50.246;14.320;2023-11-22T07:19:45;100539.00;;;0.16;87.93
77351;BME280;66420;50.246;14.320;2023-11-22T07:22:31;100541.31;;;0.37;88.74
77351;BME280;66420;50.246;14.320;2023-11-22T07:25:15;100549.66;;;0.29;89.18
77351;BME280;66420;50.246;14.320;2023-11-22T07:28:03;100550.03;;;0.39;87.94
77351;BME280;66420;50.246;14.320;2023-11-22T07:30:48;100566.53;;;0.49;87.45
77351;BME280;66420;50.246;14.320;2023-11-22T07:33:33;100564.97;;;0.04;88.24
77351;BME280;66420;50.246;14.320;2023-11-22T07:36:18;100558.88;;;0.15;89.10
77351;BME280;66420;50.246;14.320;2023-11-22T07:39:05;100563.19;;;0.22;88.43
77351;BME280;66420;50.246;14.320;2023-11-22T07:41:50;100555.66;;;-0.01;89.12
77351;BME280;66420;50.246;14.320;2023-11-22T07:44:37;100533.50;;;0.04;89.78
77351;BME280;66420;50.246;14.320;2023-11-22T07:47:22;100528.09;;;0.04;88.84
77351;BME280;66420;50.246;14.320;2023-11-22T07:50:09;100524.81;;;-0.05;89.88
77351;BME280;66420;50.246;14.320;2023-11-22T07:52:57;100522.38;;;0.25;89.12
77351;BME280;66420;50.246;14.320;2023-11-22T07:55:41;100519.78;;;0.37;89.37
77351;BME280;66420;50.246;14.320;2023-11-22T07:58:26;100523.56;;;0.29;89.16
77351;BME280;66420;50.246;14.320;2023-11-22T08:01:11;100550.03;;;0.39;88.64
77351;BME280;66420;50.246;14.320;2023-11-22T08:03:57;100566.25;;;0.26;87.77
77351;BME280;66420;50.246;14.320;2023-11-22T08:06:42;100572.13;;;0.16;88.29
77351;BME280;66420;50.246;14.320;2023-11-22T08:09:28;100570.16;;;0.30;88.92
77351;BME280;66420;50.246;14.320;2023-11-22T08:12:16;100570.84;;;0.19;88.28
77351;BME280;66420;50.246;14.320;2023-11-22T08:15:01;100576.28;;;0.12;89.00
77351;BME280;66420;50.246;14.320;2023-11-22T08:17:47;100574.94;;;0.28;88.50
77351;BME280;66420;50.246;14.320;2023-11-22T08:20:32;100585.78;;;0.15;88.71
77351;BME280;66420;50.246;14.320;2023-11-22T08:23:17;100588.66;;;0.20;89.49
77351;BME280;66420;50.246;14.320;2023-11-22T08:26:03;100600.31;;;0.14;89.66
77351;BME280;66420;50.246;14.320;2023-11-22T08:28:49;100602.50;;;0.23;88.78
77351;BME280;66420;50.246;14.320;2023-11-22T08:31:34;100591.50;;;0.31;88.49
77351;BME280;66420;50.246;14.320;2023-11-22T08:34:21;100598.28;;;0.40;88.93
77351;BME280;66420;50.246;14.320;2023-11-22T08:37:07;100600.41;;;0.32;87.74
77351;BME280;66420;50.246;14.320;2023-11-22T08:39:51;100601.38;;;0.37;89.44
77351;BME280;66420;50.246;14.320;2023-11-22T08:42:36;100599.25;;;0.46;88.42
77351;BME280;66420;50.246;14.320;2023-11-22T08:45:21;100609.69;;;0.36;88.83
77351;BME280;66420;50.246;14.320;2023-11-22T08:48:06;100619.94;;;0.21;87.86
77351;BME280;66420;50.246;14.320;2023-11-22T08:50:50;100608.16;;;0.15;88.90
77351;BME280;66420;50.246;14.320;2023-11-22T08:53:37;100614.03;;;0.37;89.39
77351;BME280;66420;50.246;14.320;2023-11-22T08:56:22;100624.47;;;0.27;88.09
77351;BME280;66420;50.246;14.320;2023-11-22T08:59:07;100622.44;;;0.54;89.09
77351;BME280;66420;50.246;14.320;2023-11-22T09:01:52;100636.00;;;0.34;88.05
77351;BME280;66420;50.246;14.320;2023-11-22T09:04:37;100644.53;;;0.31;88.74
77351;BME280;66420;50.246;14.320;2023-11-22T09:07:22;100648.72;;;0.20;90.08
77351;BME280;66420;50.246;14.320;2023-11-22T09:10:10;100643.53;;;0.57;88.79
77351;BME280;66420;50.246;14.320;2023-11-22T09:12:55;100643.22;;;0.40;88.33
77351;BME280;66420;50.246;14.320;2023-11-22T09:15:43;100650.38;;;0.15;88.60
77351;BME280;66420;50.246;14.320;2023-11-22T09:18:28;100648.31;;;0.17;89.06
77351;BME280;66420;50.246;14.320;2023-11-22T09:21:14;100649.22;;;0.04;89.35
77351;BME280;66420;50.246;14.320;2023-11-22T09:23:59;100661.84;;;0.04;89.93
77351;BME280;66420;50.246;14.320;2023-11-22T09:26:43;100666.63;;;-0.05;89.98
77351;BME280;66420;50.246;14.320;2023-11-22T09:29:28;100667.22;;;0.04;89.35
77351;BME280;66420;50.246;14.320;2023-11-22T09:32:13;100675.72;;;-0.06;89.33
77351;BME280;66420;50.246;14.320;2023-11-22T09:34:58;100668.91;;;-0.09;90.02
77351;BME280;66420;50.246;14.320;2023-11-22T09:37:43;100669.34;;;-0.12;90.07
77351;BME280;66420;50.246;14.320;2023-11-22T09:40:29;100674.19;;;0.18;90.06
77351;BME280;66420;50.246;14.320;2023-11-22T09:43:18;100676.94;;;0.05;89.31
77351;BME280;66420;50.246;14.320;2023-11-22T09:46:04;100673.44;;;-0.03;89.25
77351;BME280;66420;50.246;14.320;2023-11-22T09:48:49;100673.91;;;0.32;89.73
77351;BME280;66420;50.246;14.320;2023-11-22T09:51:37;100679.63;;;0.49;89.66
77351;BME280;66420;50.246;14.320;2023-11-22T09:54:26;100686.19;;;0.22;88.31
77351;BME280;66420;50.246;14.320;2023-11-22T09:57:14;100681.94;;;-0.06;88.67
77351;BME280;66420;50.246;14.320;2023-11-22T10:00:02;100689.94;;;0.14;88.84
77351;BME280;66420;50.246;14.320;2023-11-22T10:02:47;100695.53;;;0.13;89.01
77351;BME280;66420;50.246;14.320;2023-11-22T10:05:33;100695.41;;;0.46;89.37
77351;BME280;66420;50.246;14.320;2023-11-22T10:08:18;100701.78;;;0.51;87.51
77351;BME280;66420;50.246;14.320;2023-11-22T10:11:03;100701.78;;;0.51;87.26
77351;BME280;66420;50.246;14.320;2023-11-22T10:13:51;100701.13;;;0.56;86.89
77351;BME280;66420;50.246;14.320;2023-11-22T10:16:36;100702.78;;;0.63;86.23
77351;BME280;66420;50.246;14.320;2023-11-22T10:19:22;100713.50;;;0.32;85.20
77351;BME280;66420;50.246;14.320;2023-11-22T10:22:09;100720.69;;;0.38;87.03
77351;BME280;66420;50.246;14.320;2023-11-22T10:24:58;100720.75;;;0.25;86.96
77351;BME280;66420;50.246;14.320;2023-11-22T10:27:45;100719.88;;;0.37;85.89
77351;BME280;66420;50.246;14.320;2023-11-22T10:30:31;100723.63;;;0.30;86.52
77351;BME280;66420;50.246;14.320;2023-11-22T10:33:18;100723.38;;;0.44;86.44
77351;BME280;66420;50.246;14.320;2023-11-22T10:36:04;100725.16;;;0.57;86.32
77351;BME280;66420;50.246;14.320;2023-11-22T10:38:49;100735.66;;;0.72;85.46
77351;BME280;66420;50.246;14.320;2023-11-22T10:41:37;100733.81;;;0.66;84.58
77351;BME280;66420;50.246;14.320;2023-11-22T10:44:23;100726.81;;;0.58;85.86
77351;BME280;66420;50.246;14.320;2023-11-22T10:47:08;100725.78;;;0.59;84.38
77351;BME280;66420;50.246;14.320;2023-11-22T10:49:54;100723.97;;;0.47;84.55
77351;BME280;66420;50.246;14.320;2023-11-22T10:52:41;100729.84;;;0.30;83.83
77351;BME280;66420;50.246;14.320;2023-11-22T10:55:31;100724.00;;;0.40;84.44
77351;BME280;66420;50.246;14.320;2023-11-22T10:58:18;100723.69;;;0.17;84.48
77351;BME280;66420;50.246;14.320;2023-11-22T11:01:05;100730.25;;;0.34;84.80
77351;BME280;66420;50.246;14.320;2023-11-22T11:04:09;100724.13;;;0.14;84.55
77351;BME280;66420;50.246;14.320;2023-11-22T11:06:57;100730.25;;;0.34;85.84
77351;BME280;66420;50.246;14.320;2023-11-22T11:09:42;100716.94;;;0.46;84.85
77351;BME280;66420;50.246;14.320;2023-11-22T11:12:28;100711.13;;;0.49;84.02
77351;BME280;66420;50.246;14.320;2023-11-22T11:15:14;100708.16;;;0.63;84.44
77351;BME280;66420;50.246;14.320;2023-11-22T11:18:02;100702.72;;;0.70;84.42
77351;BME280;66420;50.246;14.320;2023-11-22T11:20:50;100717.28;;;0.62;84.31
77351;BME280;66420;50.246;14.320;2023-11-22T11:23:35;100698.72;;;0.79;83.55
77351;BME280;66420;50.246;14.320;2023-11-22T11:26:20;100698.88;;;0.53;82.97
77351;BME280;66420;50.246;14.320;2023-11-22T11:29:31;100696.75;;;0.61;83.62
77351;BME280;66420;50.246;14.320;2023-11-22T11:32:37;100700.91;;;0.95;85.23
77351;BME280;66420;50.246;14.320;2023-11-22T11:35:37;100707.34;;;0.94;82.59
77351;BME280;66420;50.246;14.320;2023-11-22T11:38:31;100704.75;;;0.74;82.83
77351;BME280;66420;50.246;14.320;2023-11-22T11:41:18;100710.22;;;0.61;83.46
77351;BME280;66420;50.246;14.320;2023-11-22T11:44:03;100705.69;;;0.55;84.40
77351;BME280;66420;50.246;14.320;2023-11-22T11:46:51;100697.66;;;0.86;84.70
77351;BME280;66420;50.246;14.320;2023-11-22T11:49:37;100713.03;;;0.79;82.81
77351;BME280;66420;50.246;14.320;2023-11-22T11:52:26;100722.69;;;0.56;85.52
77351;BME280;66420;50.246;14.320;2023-11-22T11:55:11;100730.13;;;0.60;84.27
77351;BME280;66420;50.246;14.320;2023-11-22T11:57:55;100734.25;;;0.63;85.85
77351;BME280;66420;50.246;14.320;2023-11-22T12:00:40;100741.44;;;0.75;84.87
77351;BME280;66420;50.246;14.320;2023-11-22T12:03:26;100743.28;;;0.81;85.19
77351;BME280;66420;50.246;14.320;2023-11-22T12:06:14;100740.78;;;0.80;84.37
77351;BME280;66420;50.246;14.320;2023-11-22T12:09:00;100745.16;;;0.81;84.80
77351;BME280;66420;50.246;14.320;2023-11-22T12:11:45;100741.53;;;0.94;84.90
77351;BME280;66420;50.246;14.320;2023-11-22T12:14:32;100753.78;;;0.52;84.50
77351;BME280;66420;50.246;14.320;2023-11-22T12:17:17;100753.31;;;0.61;84.38
77351;BME280;66420;50.246;14.320;2023-11-22T12:20:13;100758.69;;;0.68;85.27
77351;BME280;66420;50.246;14.320;2023-11-22T12:22:58;100768.31;;;0.44;85.28
77351;BME280;66420;50.246;14.320;2023-11-22T12:25:44;100761.09;;;0.38;85.49
77351;BME280;66420;50.246;14.320;2023-11-22T12:28:30;100765.13;;;0.60;85.77
77351;BME280;66420;50.246;14.320;2023-11-22T12:31:17;100763.25;;;0.67;85.96
77351;BME280;66420;50.246;14.320;2023-11-22T12:34:02;100762.78;;;0.77;85.21
77351;BME280;66420;50.246;14.320;2023-11-22T12:36:47;100762.31;;;0.86;84.87
77351;BME280;66420;50.246;14.320;2023-11-22T12:39:36;100771.06;;;0.75;84.60
77351;BME280;66420;50.246;14.320;2023-11-22T12:42:21;100766.44;;;0.89;85.18
77351;BME280;66420;50.246;14.320;2023-11-22T12:45:18;100747.19;;;0.85;85.48
77351;BME280;66420;50.246;14.320;2023-11-22T12:48:19;100743.19;;;0.63;85.03
77351;BME280;66420;50.246;14.320;2023-11-22T12:51:15;100747.16;;;0.48;85.47
77351;BME280;66420;50.246;14.320;2023-11-22T12:53:59;100746.84;;;0.69;85.48
77351;BME280;66420;50.246;14.320;2023-11-22T12:56:46;100735.78;;;0.83;85.87
77351;BME280;66420;50.246;14.320;2023-11-22T12:59:31;100721.72;;;0.81;85.86
77351;BME280;66420;50.246;14.320;2023-11-22T13:02:16;100722.94;;;0.85;85.30
77351;BME280;66420;50.246;14.320;2023-11-22T13:05:01;100724.59;;;0.86;85.23
77351;BME280;66420;50.246;14.320;2023-11-22T13:07:46;100725.47;;;0.80;85.53
77351;BME280;66420;50.246;14.320;2023-11-22T13:10:31;100721.47;;;0.89;85.23
77351;BME280;66420;50.246;14.320;2023-11-22T13:13:17;100726.63;;;0.53;84.34
77351;BME280;66420;50.246;14.320;2023-11-22T13:16:01;100731.00;;;0.54;85.53
77351;BME280;66420;50.246;14.320;2023-11-22T13:18:46;100729.78;;;0.50;85.84
77351;BME280;66420;50.246;14.320;2023-11-22T13:21:33;100735.88;;;0.70;86.07
77351;BME280;66420;50.246;14.320;2023-11-22T13:24:18;100733.34;;;0.75;85.47
77351;BME280;66420;50.246;14.320;2023-11-22T13:27:05;100732.72;;;0.73;84.59
77351;BME280;66420;50.246;14.320;2023-11-22T13:29:53;100730.81;;;0.87;84.45
77351;BME280;66420;50.246;14.320;2023-11-22T13:32:38;100732.50;;;0.81;84.96
77351;BME280;66420;50.246;14.320;2023-11-22T13:35:26;100738.53;;;0.77;83.49
77351;BME280;66420;50.246;14.320;2023-11-22T13:38:15;100737.44;;;0.84;84.32
77351;BME280;66420;50.246;14.320;2023-11-22T13:41:00;100732.50;;;0.81;83.77
77351;BME280;66420;50.246;14.320;2023-11-22T13:43:46;100733.34;;;0.75;83.82
77351;BME280;66420;50.246;14.320;2023-11-22T13:46:32;100738.75;;;0.75;84.37
77351;BME280;66420;50.246;14.320;2023-11-22T13:49:17;100733.34;;;0.82;83.58
77351;BME280;66420;50.246;14.320;2023-11-22T13:52:02;100734.56;;;0.79;83.26
77351;BME280;66420;50.246;14.320;2023-11-22T13:54:48;100749.53;;;0.69;83.57
77351;BME280;66420;50.246;14.320;2023-11-22T13:57:35;100753.69;;;0.71;84.04
77351;BME280;66420;50.246;14.320;2023-11-22T14:00:22;100750.56;;;0.74;84.79
77351;BME280;66420;50.246;14.320;2023-11-22T14:03:07;100751.66;;;0.67;83.97
77351;BME280;66420;50.246;14.320;2023-11-22T14:05:53;100748.75;;;0.68;84.76
77351;BME280;66420;50.246;14.320;2023-11-22T14:08:37;100746.91;;;0.62;83.00
77351;BME280;66420;50.246;14.320;2023-11-22T14:11:23;100754.22;;;0.42;83.63
77351;BME280;66420;50.246;14.320;2023-11-22T14:14:07;100765.38;;;0.52;84.14
77351;BME280;66420;50.246;14.320;2023-11-22T14:16:54;100770.78;;;0.52;83.65
77351;BME280;66420;50.246;14.320;2023-11-22T14:19:39;100773.22;;;0.60;84.83
77351;BME280;66420;50.246;14.320;2023-11-22T14:22:24;100778.97;;;0.70;84.54
77351;BME280;66420;50.246;14.320;2023-11-22T14:25:10;100775.03;;;0.73;84.04
77351;BME280;66420;50.246;14.320;2023-11-22T14:28:00;100781.47;;;0.65;83.96